Time;durP1;ratioP1;P1;durP2;ratioP2;P2;SDS_P1;SDS_P2;PMS_P1;PMS_P2;Temp;Humidity;BMP_temperature;BMP_pressure;BME280_temperature;BME280_humidity;BME280_pressure;Samples;Min_cycle;Max_cycle;Signal;HPM_P1;HPM_P2
2023/03/12 00:01:58;;;;;;;35.90;10.45;;;10.90;99.90;;;;;;4993960;28;20045;-92
2023/03/12 00:04:26;;;;;;;48.67;11.18;;;11.10;99.90;;;;;;4993710;28;20058;-92
2023/03/12 00:06:53;;;;;;;39.85;10.15;;;11.30;99.90;;;;;;4977930;28;20124;-91
2023/03/12 00:09:20;;;;;;;39.20;10.68;;;11.50;99.90;;;;;;4993845;28;20034;-93
2023/03/12 00:11:46;;;;;;;40.58;10.63;;;11.60;99.90;;;;;;4977807;28;20049;-92
2023/03/12 00:14:13;;;;;;;35.30;10.13;;;11.60;99.90;;;;;;4994017;28;20043;-93
2023/03/12 00:16:40;;;;;;;38.15;9.50;;;11.70;99.90;;;;;;4978046;28;20038;-92
2023/03/12 00:22:02;;;;;;;41.08;9.88;;;11.80;99.90;;;;;;5203403;23;19979;-89
2023/03/12 00:24:28;;;;;;;43.42;9.68;;;11.80;99.90;;;;;;5004804;28;20029;-86
2023/03/12 00:26:55;;;;;;;43.65;10.93;;;11.70;99.90;;;;;;4998878;28;20134;-83
2023/03/12 00:29:21;;;;;;;31.98;8.70;;;11.70;99.90;;;;;;4998829;28;20395;-84
2023/03/12 00:31:50;;;;;;;41.45;9.40;;;11.70;99.90;;;;;;4982757;28;20041;-88
2023/03/12 00:34:16;;;;;;;30.55;8.80;;;11.70;99.90;;;;;;4999072;28;20108;-86
2023/03/12 00:36:43;;;;;;;44.17;9.25;;;11.70;99.90;;;;;;4986290;28;20441;-88
2023/03/12 00:39:09;;;;;;;26.38;8.57;;;11.70;99.90;;;;;;5019582;28;20068;-85
2023/03/12 00:41:36;;;;;;;33.15;8.85;;;11.70;99.90;;;;;;5003089;28;20029;-85
2023/03/12 00:44:05;;;;;;;32.17;8.43;;;11.70;99.90;;;;;;5019217;28;20021;-87
2023/03/12 00:46:32;;;;;;;37.38;8.73;;;11.70;99.90;;;;;;5003005;28;20034;-87
2023/03/12 00:48:59;;;;;;;32.00;8.80;;;11.70;99.90;;;;;;5018973;28;20045;-77
2023/03/12 00:51:25;;;;;;;46.30;10.27;;;11.80;99.90;;;;;;5018255;28;20026;-81
2023/03/12 00:53:52;;;;;;;38.05;9.27;;;11.80;99.90;;;;;;5002091;28;20404;-80
2023/03/12 00:56:18;;;;;;;39.90;11.02;;;11.90;99.90;;;;;;5002061;28;20518;-78
2023/03/12 00:58:45;;;;;;;38.55;8.65;;;11.90;99.90;;;;;;5019484;28;20078;-80
2023/03/12 01:01:12;;;;;;;45.58;10.15;;;12.00;99.90;;;;;;5017422;28;20024;-80
2023/03/12 01:03:38;;;;;;;29.10;8.60;;;12.00;99.90;;;;;;5016117;28;20108;-79
2023/03/12 01:06:05;;;;;;;37.35;9.15;;;12.00;99.90;;;;;;5019399;28;20030;-76
2023/03/12 01:08:34;;;;;;;39.92;9.95;;;12.00;99.90;;;;;;5030115;28;20026;-78
2023/03/12 01:11:01;;;;;;;39.33;11.02;;;12.00;99.90;;;;;;5001273;28;20050;-78
2023/03/12 01:13:28;;;;;;;39.30;10.32;;;12.00;99.90;;;;;;5002312;28;20073;-77
2023/03/12 01:15:58;;;;;;;43.60;11.18;;;12.10;99.90;;;;;;5019495;28;20034;-91
2023/03/12 01:18:43;;;;;;;44.25;10.45;;;12.10;99.90;;;;;;5343864;23;20553;-92
2023/03/12 01:21:41;;;;;;;43.83;10.65;;;12.20;99.90;;;;;;5159982;23;20029;31
2023/03/12 01:24:07;;;;;;;39.33;9.85;;;12.20;99.90;;;;;;4906212;29;20098;-91
2023/03/12 01:26:34;;;;;;;34.53;9.65;;;12.20;99.90;;;;;;4907379;29;20028;-91
2023/03/12 01:29:01;;;;;;;41.10;9.13;;;12.20;99.90;;;;;;4907422;29;20024;-92
2023/03/12 01:31:27;;;;;;;47.58;9.30;;;12.20;99.90;;;;;;4904176;29;20119;-91
2023/03/12 01:33:53;;;;;;;47.22;10.15;;;12.30;99.90;;;;;;4904505;29;20035;-90
2023/03/12 01:36:26;;;;;;;43.17;9.80;;;12.40;99.90;;;;;;4904384;29;20040;-93
2023/03/12 01:38:56;;;;;;;43.00;9.55;;;12.40;99.90;;;;;;4904118;29;20497;-91
2023/03/12 01:41:26;;;;;;;41.60;10.55;;;12.40;99.90;;;;;;4918844;29;20035;-92
2023/03/12 01:43:52;;;;;;;35.97;9.27;;;12.40;99.90;;;;;;4922852;29;20035;-91
2023/03/12 01:46:38;;;;;;;32.83;8.95;;;12.30;99.90;;;;;;4933734;29;20430;-91
2023/03/12 01:49:27;;;;;;;36.97;9.02;;;12.30;99.90;;;;;;4917188;29;20114;-91
2023/03/12 01:52:09;;;;;;;31.70;9.45;;;12.20;99.90;;;;;;4922749;29;20175;-90
2023/03/12 01:54:50;;;;;;;39.80;9.52;;;12.10;99.90;;;;;;4937206;29;20036;-92
2023/03/12 01:57:28;;;;;;;38.83;9.40;;;12.00;99.90;;;;;;4922999;29;20039;-91
2023/03/12 02:00:00;;;;;;;27.45;8.50;;;12.00;99.90;;;;;;4938596;29;20031;-90
2023/03/12 02:02:28;;;;;;;41.05;9.45;;;11.90;99.90;;;;;;4934755;29;20128;-90
2023/03/12 02:05:37;;;;;;;37.15;9.25;;;11.90;99.90;;;;;;4915638;29;20031;-92
2023/03/12 02:08:04;;;;;;;34.97;9.52;;;11.90;99.90;;;;;;4931649;29;20024;-90
2023/03/12 02:10:30;;;;;;;33.30;10.73;;;11.80;99.90;;;;;;4919523;29;20054;-91
2023/03/12 02:12:56;;;;;;;42.40;10.98;;;11.80;99.90;;;;;;4919643;29;20028;-92
2023/03/12 02:15:23;;;;;;;30.00;10.10;;;11.70;99.90;;;;;;4918290;29;20059;-90
2023/03/12 02:17:50;;;;;;;46.13;10.88;;;11.70;99.90;;;;;;4938468;29;20035;-91
2023/03/12 02:20:33;;;;;;;35.30;10.98;;;11.60;99.90;;;;;;4907555;29;20032;-92
2023/03/12 02:23:13;;;;;;;34.97;9.65;;;11.60;99.90;;;;;;4935233;29;20059;-93
2023/03/12 02:25:50;;;;;;;32.90;9.65;;;11.50;99.90;;;;;;4941543;29;20034;-92
2023/03/12 02:28:22;;;;;;;45.38;10.40;;;11.50;99.90;;;;;;4925424;29;20027;-91
2023/03/12 02:30:51;;;;;;;40.47;9.57;;;11.50;99.90;;;;;;4941238;29;20031;-91
2023/03/12 02:33:18;;;;;;;35.08;10.50;;;11.50;99.90;;;;;;4925546;29;20110;-92
2023/03/12 02:35:47;;;;;;;37.42;10.15;;;11.40;99.90;;;;;;4941285;29;20055;-92
2023/03/12 02:38:47;;;;;;;45.22;9.95;;;11.50;99.90;;;;;;4925321;29;20031;-92
2023/03/12 02:41:19;;;;;;;46.80;11.20;;;11.50;99.90;;;;;;4924563;28;20055;-93
2023/03/12 02:43:52;;;;;;;39.47;11.30;;;11.50;99.90;;;;;;4949618;28;20042;-94
2023/03/12 02:46:19;;;;;;;45.10;10.23;;;11.50;99.90;;;;;;4963704;28;20019;-92
2023/03/12 02:48:46;;;;;;;34.42;10.50;;;11.50;99.90;;;;;;4932254;29;20143;-93
2023/03/12 02:51:13;;;;;;;39.20;9.82;;;11.60;99.90;;;;;;4931492;29;20046;-91
2023/03/12 02:53:39;;;;;;;51.28;10.25;;;11.50;99.90;;;;;;4949211;28;20016;-93
2023/03/12 02:56:06;;;;;;;45.15;10.50;;;11.60;99.90;;;;;;4965017;28;20042;-93
2023/03/12 02:58:33;;;;;;;45.83;9.95;;;11.60;99.90;;;;;;4938388;29;20190;-92
2023/03/12 03:01:01;;;;;;;33.30;9.50;;;11.60;99.90;;;;;;4941769;29;20035;-91
2023/03/12 03:03:27;;;;;;;31.98;9.65;;;11.60;99.90;;;;;;4928551;29;20023;-93
2023/03/12 03:05:54;;;;;;;42.28;10.40;;;11.60;99.90;;;;;;4940352;29;20037;-92
2023/03/12 03:08:20;;;;;;;38.35;9.32;;;11.60;99.90;;;;;;4924868;29;20039;-91
2023/03/12 03:10:51;;;;;;;41.20;10.52;;;11.60;99.90;;;;;;4940191;29;20031;-93
2023/03/12 03:13:17;;;;;;;46.97;9.98;;;11.70;99.90;;;;;;4940518;29;20122;-93
2023/03/12 03:15:44;;;;;;;33.58;9.45;;;11.70;99.90;;;;;;4939957;29;20551;-92
2023/03/12 03:18:14;;;;;;;38.83;9.32;;;11.70;99.90;;;;;;4939952;29;20028;-93
2023/03/12 03:20:42;;;;;;;28.90;9.23;;;11.70;99.90;;;;;;4939934;29;20126;-92
2023/03/12 03:23:08;;;;;;;27.25;9.02;;;11.70;99.90;;;;;;4939931;29;20058;-93
2023/03/12 03:25:35;;;;;;;35.17;9.50;;;11.80;99.90;;;;;;4939905;29;20031;-92
2023/03/12 03:28:01;;;;;;;35.20;10.05;;;11.80;99.90;;;;;;4939655;29;20118;-92
2023/03/12 03:30:28;;;;;;;31.80;9.45;;;11.80;99.90;;;;;;4939738;29;20023;-92
2023/03/12 03:32:54;;;;;;;26.23;9.75;;;11.80;99.90;;;;;;4949645;28;20042;-91
2023/03/12 03:35:21;;;;;;;30.63;8.95;;;11.80;99.90;;;;;;4958898;28;20031;-91
2023/03/12 03:37:47;;;;;;;27.80;9.43;;;11.80;99.90;;;;;;4958863;28;20117;-92
2023/03/12 03:40:14;;;;;;;28.38;8.88;;;11.80;99.90;;;;;;4958962;28;20481;-92
2023/03/12 03:42:44;;;;;;;28.48;9.05;;;11.80;99.90;;;;;;4942886;28;20031;-92
2023/03/12 03:45:10;;;;;;;26.35;8.73;;;11.80;99.90;;;;;;4943065;28;20030;-91
2023/03/12 03:47:40;;;;;;;36.53;10.35;;;11.70;99.90;;;;;;4959601;28;20030;-93
2023/03/12 03:50:07;;;;;;;31.70;8.90;;;11.70;99.90;;;;;;4958590;28;20507;-90
2023/03/12 03:52:33;;;;;;;31.33;9.68;;;11.70;99.90;;;;;;4958755;28;20034;-91
2023/03/12 03:55:03;;;;;;;28.92;9.18;;;11.70;99.90;;;;;;4958806;28;20030;-91
2023/03/12 03:57:31;;;;;;;30.90;9.95;;;11.80;99.90;;;;;;4959116;28;20082;-90
2023/03/12 03:59:59;;;;;;;23.50;9.07;;;11.70;99.90;;;;;;4958641;28;20153;-92
2023/03/12 04:02:27;;;;;;;28.38;9.13;;;11.80;99.90;;;;;;4958495;28;20038;-93
2023/03/12 04:04:57;;;;;;;29.70;10.80;;;11.80;99.90;;;;;;4958704;28;20022;-91
2023/03/12 04:07:28;;;;;;;38.70;10.25;;;11.80;99.90;;;;;;4959151;28;20031;-90
2023/03/12 04:09:58;;;;;;;28.60;9.80;;;11.80;99.90;;;;;;4957777;28;20027;-92
2023/03/12 04:12:26;;;;;;;39.17;10.38;;;11.80;99.90;;;;;;4958574;28;20110;-91
2023/03/12 04:14:54;;;;;;;35.13;10.30;;;11.80;99.90;;;;;;4958534;28;20418;-91
2023/03/12 04:17:21;;;;;;;25.20;9.15;;;11.80;99.90;;;;;;4958409;28;20042;-92
2023/03/12 04:19:48;;;;;;;27.55;9.73;;;11.70;99.90;;;;;;4958552;28;20123;-91
2023/03/12 04:22:14;;;;;;;33.83;9.68;;;11.70;99.90;;;;;;4957848;28;20603;-91
2023/03/12 04:24:41;;;;;;;36.92;9.68;;;11.70;99.90;;;;;;4957946;28;20146;-92
2023/03/12 04:27:08;;;;;;;31.02;9.52;;;11.80;99.90;;;;;;4941883;28;20035;-92
2023/03/12 04:29:34;;;;;;;33.85;9.95;;;11.70;99.90;;;;;;4958044;28;20555;-90
2023/03/12 04:32:01;;;;;;;23.33;8.38;;;11.70;99.90;;;;;;4942117;28;20507;-91
2023/03/12 04:34:27;;;;;;;29.10;8.35;;;11.70;99.90;;;;;;4941895;28;20045;-92
2023/03/12 04:36:55;;;;;;;36.47;7.90;;;11.80;99.90;;;;;;4941784;28;20098;-91
2023/03/12 04:39:22;;;;;;;28.40;8.70;;;11.70;99.90;;;;;;4941578;28;20118;-90
2023/03/12 04:41:51;;;;;;;17.60;7.47;;;11.70;99.90;;;;;;4942056;28;20101;-92
2023/03/12 04:44:17;;;;;;;33.72;8.98;;;11.70;99.90;;;;;;4940407;28;20488;-91
2023/03/12 04:46:44;;;;;;;28.50;8.32;;;11.70;99.90;;;;;;4954538;29;20089;-91
2023/03/12 04:49:14;;;;;;;28.02;8.18;;;11.70;99.90;;;;;;4953725;29;20028;-91
2023/03/12 04:51:42;;;;;;;30.27;8.20;;;11.70;99.90;;;;;;4954222;29;20034;-92
2023/03/12 04:54:08;;;;;;;28.80;8.63;;;11.70;99.90;;;;;;4938342;29;20043;-92
2023/03/12 04:56:36;;;;;;;32.40;8.93;;;11.60;99.90;;;;;;4953796;29;20493;-91
2023/03/12 04:59:03;;;;;;;28.05;8.27;;;11.60;99.90;;;;;;4956529;28;20039;-91
2023/03/12 05:01:33;;;;;;;29.75;8.20;;;11.60;99.90;;;;;;4939276;29;20042;-91
2023/03/12 05:04:06;;;;;;;26.67;8.07;;;11.50;99.90;;;;;;4939411;29;20031;-90
2023/03/12 05:06:34;;;;;;;33.28;8.50;;;11.50;99.90;;;;;;4938846;29;20063;-90
2023/03/12 05:09:02;;;;;;;25.48;7.00;;;11.40;99.90;;;;;;4938983;29;20027;-90
2023/03/12 05:11:29;;;;;;;35.50;9.43;;;11.30;99.90;;;;;;4938988;29;20128;-93
2023/03/12 05:13:55;;;;;;;26.50;8.13;;;11.40;99.90;;;;;;4938767;29;20024;-92
2023/03/12 05:16:23;;;;;;;22.73;7.88;;;11.40;99.90;;;;;;4950216;29;20043;-91
2023/03/12 05:18:49;;;;;;;27.40;8.75;;;11.40;99.90;;;;;;4939055;29;20019;-92
2023/03/12 05:21:19;;;;;;;29.48;8.20;;;11.50;99.90;;;;;;4939678;29;20035;-92
2023/03/12 05:23:50;;;;;;;34.03;9.10;;;11.50;99.90;;;;;;4959418;28;20031;-90
2023/03/12 05:26:30;;;;;;;36.90;8.73;;;11.50;99.90;;;;;;4944174;29;20039;-90
2023/03/12 05:29:04;;;;;;;34.42;8.98;;;11.60;99.90;;;;;;4944828;29;20488;-91
2023/03/12 05:31:34;;;;;;;32.85;8.60;;;11.70;99.90;;;;;;4944030;29;20039;-91
2023/03/12 05:34:05;;;;;;;29.58;8.45;;;11.80;99.90;;;;;;4943784;29;20032;-90
2023/03/12 05:36:36;;;;;;;38.28;10.35;;;11.90;99.90;;;;;;4944550;29;20070;-92
2023/03/12 05:39:03;;;;;;;35.63;8.13;;;12.00;99.90;;;;;;4944943;28;20035;-90
2023/03/12 05:41:32;;;;;;;34.72;8.85;;;12.00;99.90;;;;;;4963966;28;20030;-92
2023/03/12 05:44:05;;;;;;;37.73;9.07;;;12.10;99.90;;;;;;4965144;28;20027;-90
2023/03/12 05:46:32;;;;;;;33.92;8.05;;;12.20;99.90;;;;;;4964275;28;20030;-91
2023/03/12 05:49:00;;;;;;;35.15;8.77;;;12.20;99.90;;;;;;4962022;28;20062;-93
2023/03/12 05:51:27;;;;;;;38.00;8.30;;;12.30;99.90;;;;;;4962029;28;20035;-90
2023/03/12 05:53:53;;;;;;;24.92;9.20;;;12.60;99.90;;;;;;4960953;28;20042;-92
2023/03/12 05:56:20;;;;;;;33.28;8.23;;;12.80;99.90;;;;;;4961085;28;20042;-92
2023/03/12 05:58:48;;;;;;;29.48;8.18;;;13.20;99.90;;;;;;4961095;28;20023;-93
2023/03/12 06:01:25;;;;;;;29.98;11.45;;;13.90;99.90;;;;;;4961292;28;20118;-91
2023/03/12 06:03:54;;;;;;;34.72;15.50;;;14.60;99.90;;;;;;4945293;28;20031;-91
2023/03/12 06:06:25;;;;;;;32.80;16.63;;;15.20;99.90;;;;;;4953035;29;20031;-93
2023/03/12 06:08:52;;;;;;;35.95;18.17;;;15.70;99.90;;;;;;4941471;29;20404;-93
2023/03/12 06:11:19;;;;;;;33.58;18.60;;;16.20;99.90;;;;;;4941256;29;20024;-91
2023/03/12 06:13:47;;;;;;;31.60;18.92;;;16.70;99.90;;;;;;4941687;29;20085;-91
2023/03/12 06:16:21;;;;;;;31.40;20.10;;;17.00;99.90;;;;;;4941252;29;20031;-93
2023/03/12 06:18:54;;;;;;;32.20;19.25;;;17.10;99.90;;;;;;4941333;29;20031;-92
2023/03/12 06:21:24;;;;;;;26.45;18.25;;;17.20;99.90;;;;;;4941662;29;20097;-92
2023/03/12 06:23:52;;;;;;;32.80;19.33;;;17.70;99.90;;;;;;4957010;29;20621;-94
2023/03/12 06:26:29;;;;;;;31.02;19.67;;;17.90;99.90;;;;;;4942511;29;20081;-95
2023/03/12 06:28:56;;;;;;;26.40;19.58;;;18.10;99.90;;;;;;4941347;29;20027;-91
2023/03/12 06:31:24;;;;;;;28.40;20.65;;;18.50;99.90;;;;;;4936799;29;20402;-93
2023/03/12 06:33:52;;;;;;;28.40;20.15;;;18.80;99.90;;;;;;4941287;29;20178;-93
2023/03/12 06:36:21;;;;;;;27.90;20.25;;;19.10;99.90;;;;;;4941305;29;20043;-91
2023/03/12 06:38:48;;;;;;;31.25;20.23;;;18.90;99.90;;;;;;4941074;29;20037;-91
2023/03/12 06:41:18;;;;;;;31.88;20.13;;;18.70;99.90;;;;;;4942290;29;20031;-91
2023/03/12 06:43:48;;;;;;;26.95;19.85;;;18.40;99.90;;;;;;4940686;29;20396;-93
2023/03/12 06:46:17;;;;;;;24.77;20.08;;;18.50;99.90;;;;;;4940900;29;20450;-92
2023/03/12 06:48:45;;;;;;;33.90;20.10;;;18.60;99.90;;;;;;4940661;29;20473;-93
2023/03/12 06:51:13;;;;;;;27.75;20.70;;;18.70;99.90;;;;;;4937902;29;20035;-94
2023/03/12 06:53:40;;;;;;;26.35;20.10;;;18.60;99.90;;;;;;4940555;29;20110;-92
2023/03/12 06:56:07;;;;;;;27.70;19.63;;;18.80;99.90;;;;;;4940497;29;20140;-92
2023/03/12 06:58:34;;;;;;;26.67;20.23;;;18.80;99.90;;;;;;4940404;29;20100;-94
2023/03/12 07:01:00;;;;;;;29.77;20.10;;;18.60;99.90;;;;;;4940528;29;20038;-94
2023/03/12 07:03:27;;;;;;;25.75;19.48;;;18.60;99.90;;;;;;4940637;29;20023;-93
2023/03/12 07:05:55;;;;;;;31.98;19.35;;;18.60;99.90;;;;;;4958092;28;20015;-93
2023/03/12 07:08:23;;;;;;;27.70;20.15;;;18.80;99.90;;;;;;4965110;28;20027;-94
2023/03/12 07:10:50;;;;;;;24.35;19.55;;;19.00;99.90;;;;;;4961749;28;20048;-92
2023/03/12 07:13:16;;;;;;;25.65;20.48;;;19.30;99.90;;;;;;4945138;29;20027;-93
2023/03/12 07:15:45;;;;;;;27.85;20.27;;;19.20;99.90;;;;;;4945548;28;20048;-93
2023/03/12 07:18:12;;;;;;;29.65;19.70;;;19.10;99.90;;;;;;4930159;28;20056;-89
2023/03/12 07:20:41;;;;;;;23.98;18.88;;;18.90;99.90;;;;;;4972278;28;20126;-93
2023/03/12 07:23:08;;;;;;;21.73;18.05;;;18.80;99.90;;;;;;4963503;29;20055;-93
2023/03/12 07:25:40;;;;;;;23.98;18.10;;;18.80;99.90;;;;;;4960182;29;20034;-92
2023/03/12 07:28:07;;;;;;;21.23;19.13;;;19.10;99.90;;;;;;4940193;29;20031;-93
2023/03/12 07:30:38;;;;;;;30.08;18.42;;;19.40;99.90;;;;;;4939542;29;20023;-92
2023/03/12 07:33:07;;;;;;;31.60;19.33;;;19.50;99.90;;;;;;4926370;29;20032;-92
2023/03/12 07:35:34;;;;;;;22.17;18.17;;;19.20;99.90;;;;;;4939754;29;20115;-92
2023/03/12 07:38:01;;;;;;;26.08;18.27;;;19.10;99.90;;;;;;4939709;29;20481;-92
2023/03/12 07:40:28;;;;;;;34.90;19.10;;;19.10;99.90;;;;;;4940022;29;20070;-93
2023/03/12 07:42:56;;;;;;;24.83;17.98;;;18.90;99.90;;;;;;4938176;29;20031;-91
2023/03/12 07:45:23;;;;;;;23.48;17.73;;;18.30;99.90;;;;;;4936526;29;20043;-93
2023/03/12 07:47:50;;;;;;;30.67;18.83;;;18.40;99.90;;;;;;4936396;29;20055;-91
2023/03/12 07:50:18;;;;;;;29.35;17.50;;;18.40;99.90;;;;;;4936645;29;20043;-92
2023/03/12 07:52:45;;;;;;;24.65;17.70;;;18.60;99.90;;;;;;4934811;29;20025;-92
2023/03/12 07:55:12;;;;;;;34.33;18.02;;;18.70;99.90;;;;;;4936371;29;20123;-92
2023/03/12 07:57:42;;;;;;;31.35;17.65;;;19.20;99.90;;;;;;4936345;29;20110;-93
2023/03/12 08:00:09;;;;;;;26.38;18.05;;;19.60;99.90;;;;;;4952282;29;20032;-92
2023/03/12 08:02:39;;;;;;;28.27;17.90;;;19.70;99.90;;;;;;4936271;29;20039;-93
2023/03/12 08:05:06;;;;;;;33.08;16.98;;;19.30;99.90;;;;;;4936278;29;20032;-91
2023/03/12 08:07:34;;;;;;;30.27;17.98;;;19.20;99.90;;;;;;4936208;29;20050;-91
2023/03/12 08:10:06;;;;;;;33.90;18.13;;;18.80;99.90;;;;;;4936410;29;20497;-92
2023/03/12 08:13:14;;;;;;;27.45;17.33;;;18.70;99.90;;;;;;4940023;29;20023;-93
2023/03/12 08:15:59;;;;;;;26.70;17.17;;;18.40;99.90;;;;;;5147055;23;20069;-86
2023/03/12 08:18:26;;;;;;;25.92;17.70;;;18.70;99.90;;;;;;4977599;28;20504;-89
2023/03/12 08:20:54;;;;;;;31.63;17.83;;;18.70;99.90;;;;;;4974636;28;20049;-86
2023/03/12 08:23:21;;;;;;;26.02;18.45;;;18.90;99.90;;;;;;4972001;28;20026;-92
2023/03/12 08:25:48;;;;;;;31.23;17.88;;;19.10;99.90;;;;;;4957484;28;20030;-92
2023/03/12 08:28:16;;;;;;;30.40;18.88;;;18.70;99.90;;;;;;4964804;28;20031;-81
2023/03/12 08:30:48;;;;;;;26.20;18.13;;;18.60;99.90;;;;;;4996256;28;20551;-81
2023/03/12 08:33:15;;;;;;;24.85;18.08;;;18.60;99.90;;;;;;4995021;28;20033;-83
2023/03/12 08:35:42;;;;;;;30.98;18.00;;;18.30;99.90;;;;;;4978910;28;20023;-82
2023/03/12 08:38:08;;;;;;;26.27;17.50;;;17.80;99.90;;;;;;4979263;28;20089;-84
2023/03/12 08:40:35;;;;;;;33.28;18.58;;;18.00;99.90;;;;;;4976340;28;20118;-84
2023/03/12 08:43:02;;;;;;;25.05;17.35;;;18.20;99.90;;;;;;4979634;28;20034;-91
2023/03/12 08:45:29;;;;;;;24.02;17.48;;;18.30;99.90;;;;;;4979974;28;20126;-79
2023/03/12 09:44:41;;;;;;;26.05;18.20;;;18.40;99.90;;;;;;4978707;28;20105;-86
2023/03/12 09:47:43;;;;;;;18.98;16.85;;;18.10;99.90;;;;;;4979748;28;20113;-86
2023/03/12 09:50:27;;;;;;;27.30;17.27;;;18.00;99.90;;;;;;4957409;28;20126;-83
2023/03/12 09:53:14;;;;;;;18.95;17.05;;;17.40;99.90;;;;;;4978990;28;20038;-76
2023/03/12 09:55:45;;;;;;;17.85;15.88;;;17.20;99.90;;;;;;4978433;28;20055;-74
2023/03/12 09:58:21;;;;;;;19.92;16.42;;;17.00;99.90;;;;;;4979719;28;20026;-77
2023/03/12 10:00:48;;;;;;;23.45;16.67;;;17.10;99.90;;;;;;4978791;28;20049;-76
2023/03/12 10:03:34;;;;;;;20.90;17.25;;;17.00;99.90;;;;;;4999056;28;20029;-76
2023/03/12 10:06:09;;;;;;;17.42;15.32;;;17.00;99.90;;;;;;4997597;28;20030;-75
2023/03/12 10:09:10;;;;;;;19.35;14.57;;;16.70;99.90;;;;;;4979759;28;20033;-86
2023/03/12 10:11:55;;;;;;;17.23;15.30;;;16.70;99.90;;;;;;4979726;28;20026;-85
2023/03/12 10:14:56;;;;;;;20.25;15.77;;;16.80;99.90;;;;;;4996820;28;20080;-86
2023/03/12 10:17:45;;;;;;;21.27;16.17;;;17.00;99.90;;;;;;4979752;28;20404;-85
2023/03/12 10:20:53;;;;;;;17.60;15.70;;;16.60;99.90;;;;;;4979721;28;20026;-85
2023/03/12 10:23:20;;;;;;;22.35;16.27;;;16.40;99.90;;;;;;4978158;28;20097;-86
2023/03/12 10:25:57;;;;;;;18.40;16.30;;;16.60;99.90;;;;;;4979571;28;20499;-88
2023/03/12 10:28:49;;;;;;;18.95;17.08;;;16.50;99.90;;;;;;4979610;28;20061;-83
2023/03/12 10:31:33;;;;;;;19.40;17.55;;;16.60;99.90;;;;;;4981613;28;20031;-91
2023/03/12 10:34:00;;;;;;;;;;;16.80;99.90;;;;;;4985924;28;20081;-89
2023/03/12 10:36:41;;;;;;;21.85;17.35;;;17.00;99.90;;;;;;5001082;28;20591;-91
2023/03/12 10:39:16;;;;;;;22.42;17.85;;;16.80;99.90;;;;;;4982527;28;20038;-92
2023/03/12 10:41:46;;;;;;;18.25;16.55;;;17.00;99.90;;;;;;4982058;28;20030;-90
2023/03/12 10:44:24;;;;;;;23.58;16.85;;;17.10;99.90;;;;;;4981680;28;20101;-81
2023/03/12 10:47:34;;;;;;;25.90;17.42;;;16.90;99.90;;;;;;4956385;28;20031;-80
2023/03/12 10:50:25;;;;;;;19.40;17.60;;;17.00;99.90;;;;;;4958238;29;20114;-82
2023/03/12 10:53:15;;;;;;;24.88;18.10;;;16.90;99.90;;;;;;4942227;29;20031;-81
2023/03/12 10:55:42;;;;;;;21.42;18.35;;;16.90;99.90;;;;;;4947668;28;20061;-82
2023/03/12 10:58:23;;;;;;;20.27;18.45;;;16.90;99.90;;;;;;4996819;28;20031;-81
2023/03/12 11:01:00;;;;;;;19.98;17.95;;;16.90;99.90;;;;;;4996842;28;20133;-81
2023/03/12 11:03:28;;;;;;;29.77;18.65;;;16.80;99.90;;;;;;5251265;23;20103;-93
2023/03/12 11:05:58;;;;;;;20.25;18.55;;;16.80;99.90;;;;;;4984004;28;20038;-93
2023/03/12 11:08:43;;;;;;;21.08;18.70;;;16.90;99.90;;;;;;5004776;28;20034;-92
2023/03/12 11:11:10;;;;;;;20.17;18.58;;;16.60;99.90;;;;;;4991053;28;20127;-92
2023/03/12 11:16:36;;;;;;;19.52;17.60;;;16.70;99.90;;;;;;4982791;28;20046;-92
2023/03/12 11:27:45;;;;;;;;;;;16.90;99.90;;;;;;5337806;22;20060;-93
2023/03/12 11:30:34;;;;;;;22.13;17.60;;;16.80;99.90;;;;;;5023012;28;19909;-92
2023/03/12 11:33:11;;;;;;;19.67;18.15;;;16.50;99.90;;;;;;5034694;28;20031;-92
2023/03/12 11:36:05;;;;;;;19.42;17.92;;;16.50;99.90;;;;;;5030228;28;20536;-94
2023/03/12 11:39:03;;;;;;;19.65;17.92;;;16.40;99.90;;;;;;5024492;28;20386;-93
2023/03/12 11:42:10;;;;;;;19.65;17.80;;;16.30;99.90;;;;;;4994734;28;20037;-91
2023/03/12 11:44:57;;;;;;;20.48;18.10;;;16.40;99.90;;;;;;4962487;28;20038;-94
2023/03/12 11:47:39;;;;;;;19.20;17.70;;;16.70;99.90;;;;;;4962328;28;20553;-92
2023/03/12 11:50:54;;;;;;;19.15;17.38;;;16.70;99.90;;;;;;4965042;28;20054;-94
2023/03/12 11:54:13;;;;;;;19.70;17.95;;;16.70;99.90;;;;;;4966379;28;20117;-94
2023/03/12 11:56:51;;;;;;;19.95;18.30;;;16.50;99.90;;;;;;4922596;28;20038;-93
2023/03/12 11:59:50;;;;;;;21.30;18.60;;;16.50;99.90;;;;;;5012613;23;20049;-93
2023/03/12 12:02:59;;;;;;;19.63;18.00;;;16.30;99.90;;;;;;5034834;23;20074;-93
2023/03/12 12:05:51;;;;;;;21.15;19.10;;;16.50;99.90;;;;;;4982389;28;20032;-93
2023/03/12 12:08:49;;;;;;;20.00;18.33;;;16.80;99.90;;;;;;4982212;28;20372;-93
2023/03/12 12:11:44;;;;;;;19.88;18.13;;;16.50;99.90;;;;;;4982069;28;20033;-93
2023/03/12 12:14:47;;;;;;;20.55;18.55;;;16.60;99.90;;;;;;4982464;28;20431;-93
2023/03/12 12:17:29;;;;;;;20.02;18.42;;;16.60;99.90;;;;;;4981680;28;20042;-93
2023/03/12 12:20:14;;;;;;;20.15;18.40;;;16.60;99.90;;;;;;4968484;28;20023;-94
2023/03/12 12:23:01;;;;;;;21.10;19.05;;;16.70;99.90;;;;;;4966736;28;20027;-93
2023/03/12 12:25:36;;;;;;;21.13;19.35;;;16.50;99.90;;;;;;4966745;28;20054;-94
2023/03/12 12:28:36;;;;;;;20.20;18.48;;;16.50;99.90;;;;;;4966851;28;20015;-92
2023/03/12 12:31:25;;;;;;;20.45;18.92;;;16.40;99.90;;;;;;5186517;23;20038;-92
2023/03/12 12:34:08;;;;;;;20.73;19.17;;;16.20;99.90;;;;;;5025789;28;20033;-88
2023/03/12 12:36:35;;;;;;;21.02;19.65;;;16.30;99.90;;;;;;5023630;28;20038;-87
2023/03/12 12:39:14;;;;;;;21.23;19.80;;;16.30;99.90;;;;;;4999663;28;20026;-89
2023/03/12 12:41:48;;;;;;;20.17;18.83;;;16.30;99.90;;;;;;4982011;28;20108;-89
2023/03/12 12:44:19;;;;;;;21.57;19.87;;;16.40;99.90;;;;;;4984783;28;20041;-82
2023/03/12 12:46:55;;;;;;;21.17;19.52;;;16.30;99.90;;;;;;4982754;28;20053;-84
2023/03/12 12:49:49;;;;;;;20.45;18.88;;;16.20;99.90;;;;;;4979823;28;20510;-84
2023/03/12 12:52:21;;;;;;;20.50;18.98;;;16.20;99.90;;;;;;4997586;28;20033;-85
2023/03/12 12:54:50;;;;;;;20.73;19.17;;;16.20;99.90;;;;;;4980526;28;20026;-86
2023/03/12 12:57:27;;;;;;;21.13;19.42;;;16.40;99.90;;;;;;4980459;28;20109;-85
2023/03/12 13:00:35;;;;;;;20.73;19.08;;;16.50;99.90;;;;;;4984325;28;20029;-86
2023/03/12 13:03:03;;;;;;;20.75;18.90;;;16.40;99.90;;;;;;5016267;28;20545;-84
2023/03/12 13:05:35;;;;;;;20.85;19.27;;;16.30;99.90;;;;;;4999724;28;20032;-83
2023/03/12 13:08:03;;;;;;;20.83;19.30;;;16.10;99.90;;;;;;4999578;28;20033;-83
2023/03/12 13:10:33;;;;;;;20.63;19.23;;;15.90;99.90;;;;;;5011466;28;20076;-83
2023/03/12 13:13:18;;;;;;;20.77;19.10;;;16.20;99.90;;;;;;5012383;28;20125;-83
2023/03/12 13:15:45;;;;;;;21.15;19.52;;;16.30;99.90;;;;;;4998042;28;20044;-83
2023/03/12 13:18:26;;;;;;;22.27;20.65;;;16.20;99.90;;;;;;4999449;28;20030;-84
2023/03/12 13:20:53;;;;;;;22.55;20.92;;;16.20;99.90;;;;;;5015592;28;20486;-83
2023/03/12 13:23:50;;;;;;;21.98;20.27;;;16.10;99.90;;;;;;4998623;28;20438;-84
2023/03/12 13:26:37;;;;;;;21.48;20.02;;;15.90;99.90;;;;;;5015849;28;20033;-83
2023/03/12 13:29:37;;;;;;;22.05;20.65;;;15.90;99.90;;;;;;5015790;28;20056;-83
2023/03/12 13:32:07;;;;;;;22.20;20.80;;;15.80;99.90;;;;;;4917819;29;20486;-83
2023/03/12 13:35:01;;;;;;;23.15;21.45;;;15.90;99.90;;;;;;4922758;29;20032;-83
2023/03/12 13:38:00;;;;;;;23.45;21.52;;;16.20;99.90;;;;;;4926417;29;20464;-83
2023/03/12 13:40:36;;;;;;;23.20;21.80;;;16.20;99.90;;;;;;4921782;29;20446;-82
2023/03/12 13:43:17;;;;;;;23.05;21.63;;;16.20;99.90;;;;;;4927625;29;20067;-84
2023/03/12 13:46:20;;;;;;;23.52;22.10;;;16.10;99.90;;;;;;4929427;29;20497;-82
2023/03/12 13:48:56;;;;;;;24.42;22.80;;;15.80;99.90;;;;;;4929679;29;20042;-82
2023/03/12 13:51:25;;;;;;;23.65;22.17;;;15.70;99.90;;;;;;4930096;29;20096;-82
2023/03/12 13:54:00;;;;;;;24.67;23.05;;;15.50;99.90;;;;;;4929397;29;20020;-80
2023/03/12 13:56:31;;;;;;;23.52;22.13;;;15.30;99.90;;;;;;4943363;29;20075;-79
2023/03/12 13:59:02;;;;;;;24.20;22.48;;;15.20;99.90;;;;;;4945376;29;20066;-79
2023/03/12 14:01:47;;;;;;;23.90;22.30;;;15.20;99.90;;;;;;4929911;29;20039;-87
2023/03/12 14:04:22;;;;;;;24.45;22.75;;;15.30;99.90;;;;;;4930985;29;20024;-92
2023/03/12 14:07:57;;;;;;;23.75;22.27;;;15.50;99.90;;;;;;4930574;29;20477;-73
2023/03/12 14:10:56;;;;;;;24.02;22.60;;;15.80;99.90;;;;;;4972659;28;20031;-93
2023/03/12 14:13:41;;;;;;;24.48;23.15;;;15.80;99.90;;;;;;5004519;28;20033;-95
2023/03/12 14:16:48;;;;;;;24.88;23.30;;;15.50;99.90;;;;;;5017115;28;20036;-95